createdAt,value
2019-01-27T00:00:27.538Z,6.12
2019-01-27T00:01:27.528Z,6.12
2019-01-27T00:02:27.514Z,6.06
2019-01-27T00:03:27.515Z,6.06
2019-01-27T00:04:27.540Z,6.03
2019-01-27T00:05:27.490Z,6.00
2019-01-27T00:06:27.465Z,5.91
2019-01-27T00:07:27.467Z,5.98
2019-01-27T00:08:27.445Z,5.97
2019-01-27T00:09:27.433Z,5.94
2019-01-27T00:10:27.467Z,5.97
2019-01-27T00:11:27.410Z,5.88
2019-01-27T00:12:27.400Z,5.97
2019-01-27T00:13:27.389Z,5.95
2019-01-27T00:14:27.392Z,5.94
2019-01-27T00:15:27.377Z,5.98
2019-01-27T00:16:27.405Z,5.93
2019-01-27T00:17:27.345Z,6.02
2019-01-27T00:18:27.336Z,5.95
2019-01-27T00:19:27.324Z,5.97
2019-01-27T00:20:27.320Z,5.94
2019-01-27T00:21:27.308Z,6.02
2019-01-27T00:22:27.493Z,6.05
2019-01-27T00:23:27.281Z,6.15
2019-01-27T00:24:27.270Z,6.06
2019-01-27T00:25:27.260Z,6.03
2019-01-27T00:26:27.253Z,6.06
2019-01-27T00:27:27.237Z,6.03
2019-01-27T00:28:27.266Z,6.05
2019-01-27T00:29:27.214Z,6.05
2019-01-27T00:30:27.206Z,6.11
2019-01-27T00:31:27.194Z,6.09
2019-01-27T00:32:27.183Z,6.09
2019-01-27T00:33:27.174Z,6.13
2019-01-27T00:34:27.216Z,6.13
2019-01-27T00:35:27.168Z,6.11
2019-01-27T00:36:27.160Z,6.18
2019-01-27T00:37:27.129Z,6.25
2019-01-27T00:38:27.116Z,6.21
2019-01-27T00:39:27.106Z,6.13
2019-01-27T00:40:27.133Z,6.18
2019-01-27T00:41:27.088Z,6.24
2019-01-27T00:42:27.085Z,6.19
2019-01-27T00:43:27.069Z,6.28
2019-01-27T00:44:27.056Z,6.35
2019-01-27T00:45:27.058Z,6.28
2019-01-27T00:46:27.083Z,6.40
2019-01-27T00:47:27.061Z,6.28
2019-01-27T00:48:27.026Z,6.45
2019-01-27T00:49:27.004Z,6.31
2019-01-27T00:50:26.996Z,6.34
2019-01-27T00:51:26.991Z,6.35
2019-01-27T00:52:27.012Z,6.30
2019-01-27T00:53:26.961Z,6.40
2019-01-27T00:54:26.947Z,6.32
2019-01-27T00:55:26.941Z,6.28
2019-01-27T00:56:26.935Z,6.30
2019-01-27T00:57:26.933Z,6.37
2019-01-27T00:58:26.946Z,6.30
2019-01-27T00:59:26.890Z,6.25
2019-01-27T01:00:26.881Z,6.30
2019-01-27T01:01:26.883Z,6.31
2019-01-27T01:02:26.873Z,6.25
2019-01-27T01:03:26.858Z,6.35
2019-01-27T01:04:26.870Z,6.32
2019-01-27T01:05:26.832Z,6.40
2019-01-27T01:06:26.823Z,6.35
2019-01-27T01:07:26.819Z,6.45
2019-01-27T01:08:26.793Z,6.40
2019-01-27T01:09:26.789Z,6.49
2019-01-27T01:10:26.815Z,6.31
2019-01-27T01:11:26.769Z,6.35
2019-01-27T01:12:26.755Z,6.34
2019-01-27T01:13:26.751Z,6.35
2019-01-27T01:14:26.750Z,6.38
2019-01-27T01:15:26.728Z,6.40
2019-01-27T01:16:26.786Z,6.49
2019-01-27T01:17:26.700Z,6.46
2019-01-27T01:18:26.684Z,6.37
2019-01-27T01:19:26.698Z,6.35
2019-01-27T01:20:26.669Z,6.35
2019-01-27T01:21:26.654Z,6.38
2019-01-27T01:22:26.692Z,6.30
2019-01-27T01:23:26.656Z,6.32
2019-01-27T01:24:26.629Z,6.28
2019-01-27T01:25:26.628Z,6.27
2019-01-27T01:26:26.608Z,6.27
2019-01-27T01:27:26.593Z,6.32
2019-01-27T01:28:26.615Z,6.25
2019-01-27T01:29:26.569Z,6.21
2019-01-27T01:30:26.559Z,6.24
2019-01-27T01:31:28.037Z,6.15
2019-01-27T01:32:26.554Z,6.08
2019-01-27T01:33:26.527Z,6.15
2019-01-27T01:34:26.558Z,6.21
2019-01-27T01:35:26.504Z,6.21
2019-01-27T01:36:26.500Z,6.28
2019-01-27T01:37:26.485Z,6.21
2019-01-27T01:38:26.501Z,6.21
2019-01-27T01:39:26.461Z,6.18
2019-01-27T01:40:26.488Z,6.19
2019-01-27T01:41:26.457Z,6.25
2019-01-27T01:42:26.441Z,6.34
2019-01-27T01:43:26.417Z,6.19
2019-01-27T01:44:26.428Z,6.25
2019-01-27T01:45:26.398Z,6.30
2019-01-27T01:46:26.437Z,6.32
2019-01-27T01:47:26.373Z,6.31
2019-01-27T01:48:26.369Z,6.30
2019-01-27T01:49:26.376Z,6.42
2019-01-27T01:50:26.361Z,6.40
2019-01-27T01:51:26.358Z,6.34
2019-01-27T01:52:26.496Z,6.28
2019-01-27T01:53:26.331Z,6.31
2019-01-27T01:54:26.308Z,6.37
2019-01-27T01:55:26.288Z,6.32
2019-01-27T01:56:26.279Z,6.27
2019-01-27T01:57:26.273Z,6.34
2019-01-27T01:58:26.290Z,6.40
2019-01-27T01:59:26.276Z,6.35
2019-01-27T02:00:26.247Z,6.40
2019-01-27T02:01:26.224Z,6.46
2019-01-27T02:02:26.222Z,6.43
2019-01-27T02:03:26.202Z,6.35
2019-01-27T02:04:26.478Z,6.37
2019-01-27T02:05:26.183Z,6.40
2019-01-27T02:06:26.172Z,6.45
2019-01-27T02:07:26.162Z,6.38
2019-01-27T02:08:26.151Z,6.35
2019-01-27T02:09:26.137Z,6.32
2019-01-27T02:10:26.166Z,6.30
2019-01-27T02:11:26.117Z,6.25
2019-01-27T02:12:26.106Z,6.28
2019-01-27T02:13:26.095Z,6.30
2019-01-27T02:14:26.117Z,6.35
2019-01-27T02:15:26.084Z,6.42
2019-01-27T02:16:26.123Z,6.35
2019-01-27T02:17:26.061Z,6.32
2019-01-27T02:18:26.039Z,6.38
2019-01-27T02:19:26.042Z,6.38
2019-01-27T02:20:26.028Z,6.38
2019-01-27T02:21:26.011Z,6.19
2019-01-27T02:22:26.031Z,6.25
2019-01-27T02:23:26.000Z,6.24
2019-01-27T02:24:26.016Z,6.18
2019-01-27T02:25:25.970Z,6.27
2019-01-27T02:26:25.980Z,6.19
2019-01-27T02:27:25.956Z,6.25
2019-01-27T02:28:26.127Z,6.28
2019-01-27T02:29:25.920Z,6.18
2019-01-27T02:30:25.915Z,6.24
2019-01-27T02:31:25.915Z,6.27
2019-01-27T02:32:25.927Z,6.16
2019-01-27T02:33:25.895Z,6.32
2019-01-27T02:34:25.962Z,6.25
2019-01-27T02:35:25.856Z,6.25
2019-01-27T02:36:25.852Z,6.25
2019-01-27T02:37:25.843Z,6.24
2019-01-27T02:38:25.823Z,6.21
2019-01-27T02:39:25.815Z,6.15
2019-01-27T02:40:25.846Z,6.28
2019-01-27T02:41:25.826Z,6.21
2019-01-27T02:42:25.780Z,6.30
2019-01-27T02:43:25.773Z,6.19
2019-01-27T02:44:25.791Z,6.18
2019-01-27T02:45:25.751Z,6.19
2019-01-27T02:46:25.806Z,6.28
2019-01-27T02:47:25.738Z,6.28
2019-01-27T02:48:25.715Z,6.30
2019-01-27T02:49:25.730Z,6.30
2019-01-27T02:50:25.691Z,6.27
2019-01-27T02:51:25.708Z,6.21
2019-01-27T02:52:25.723Z,6.24
2019-01-27T02:53:25.655Z,6.28
2019-01-27T02:54:25.694Z,6.19
2019-01-27T02:55:25.664Z,6.27
2019-01-27T02:56:25.642Z,6.42
2019-01-27T02:57:25.617Z,6.28
2019-01-27T02:58:25.647Z,6.24
2019-01-27T02:59:25.590Z,6.28
2019-01-27T03:00:25.600Z,6.30
2019-01-27T03:01:25.600Z,6.30
2019-01-27T03:02:25.560Z,6.31
2019-01-27T03:03:25.545Z,6.24
2019-01-27T03:04:25.595Z,6.19
2019-01-27T03:05:25.538Z,6.15
2019-01-27T03:06:25.522Z,6.18
2019-01-27T03:07:25.510Z,6.21
2019-01-27T03:08:25.506Z,6.24
2019-01-27T03:09:25.489Z,6.25
2019-01-27T03:10:25.511Z,6.13
2019-01-27T03:11:25.470Z,6.25
2019-01-27T03:12:25.449Z,6.24
2019-01-27T03:13:25.447Z,6.15
2019-01-27T03:14:25.439Z,6.16
2019-01-27T03:15:25.419Z,6.16
2019-01-27T03:16:25.442Z,6.19
2019-01-27T03:17:25.401Z,6.25
2019-01-27T03:18:25.389Z,6.16
2019-01-27T03:19:25.378Z,6.15
2019-01-27T03:20:25.362Z,6.18
2019-01-27T03:21:25.357Z,6.11
2019-01-27T03:22:25.394Z,6.12
2019-01-27T03:23:25.336Z,6.13
2019-01-27T03:24:25.317Z,6.03
2019-01-27T03:25:25.316Z,6.15
2019-01-27T03:26:25.297Z,6.11
2019-01-27T03:27:25.284Z,6.13
2019-01-27T03:28:25.305Z,6.11
2019-01-27T03:29:25.266Z,6.08
2019-01-27T03:30:25.254Z,6.08
2019-01-27T03:31:25.244Z,6.12
2019-01-27T03:32:25.232Z,6.09
2019-01-27T03:33:25.224Z,6.15
2019-01-27T03:34:25.260Z,6.15
2019-01-27T03:35:25.198Z,6.15
2019-01-27T03:36:25.188Z,6.13
2019-01-27T03:37:25.177Z,6.13
2019-01-27T03:38:25.165Z,6.09
2019-01-27T03:39:25.169Z,6.09
2019-01-27T03:40:25.195Z,6.06
2019-01-27T03:41:25.134Z,5.98
2019-01-27T03:42:25.127Z,6.11
2019-01-27T03:43:25.112Z,6.19
2019-01-27T03:44:25.101Z,6.21
2019-01-27T03:45:25.099Z,6.15
2019-01-27T03:46:25.109Z,6.11
2019-01-27T03:47:25.069Z,6.12
2019-01-27T03:48:25.058Z,6.08
2019-01-27T03:49:25.048Z,5.98
2019-01-27T03:50:25.038Z,6.08
2019-01-27T03:51:25.047Z,6.06
2019-01-27T03:52:25.072Z,5.97
2019-01-27T03:53:25.006Z,5.95
2019-01-27T03:54:24.995Z,5.91
2019-01-27T03:55:24.983Z,5.87
2019-01-27T03:56:24.972Z,5.95
2019-01-27T03:57:24.963Z,5.94
2019-01-27T03:58:24.993Z,5.93
2019-01-27T03:59:24.944Z,5.82
2019-01-27T04:00:24.940Z,5.84
2019-01-27T04:01:25.359Z,5.80
2019-01-27T04:02:24.916Z,5.84
2019-01-27T04:03:24.904Z,5.85
2019-01-27T04:04:24.926Z,5.79
2019-01-27T04:05:24.897Z,5.75
2019-01-27T04:06:24.864Z,5.66
2019-01-27T04:07:24.854Z,5.79
2019-01-27T04:08:24.848Z,5.72
2019-01-27T04:09:24.843Z,5.62
2019-01-27T04:10:24.856Z,5.69
2019-01-27T04:11:24.919Z,5.69
2019-01-27T04:12:24.798Z,5.55
2019-01-27T04:13:24.793Z,5.55
2019-01-27T04:14:24.780Z,5.44
2019-01-27T04:15:24.766Z,5.47
2019-01-27T04:16:24.805Z,5.41
2019-01-27T04:17:24.745Z,5.43
2019-01-27T04:18:24.735Z,5.47
2019-01-27T04:19:24.733Z,5.39
2019-01-27T04:20:24.724Z,5.40
2019-01-27T04:21:24.703Z,5.33
2019-01-27T04:22:24.747Z,5.40
2019-01-27T04:23:24.694Z,5.36
2019-01-27T04:24:24.674Z,5.37
2019-01-27T04:25:24.675Z,5.47
2019-01-27T04:26:24.652Z,5.41
2019-01-27T04:27:24.637Z,5.51
2019-01-27T04:28:24.661Z,5.37
2019-01-27T04:29:24.617Z,5.40
2019-01-27T04:30:24.610Z,5.48
2019-01-27T04:31:24.600Z,5.40
2019-01-27T04:32:24.595Z,5.50
2019-01-27T04:33:24.579Z,5.59
2019-01-27T04:34:24.613Z,5.54
2019-01-27T04:35:24.552Z,5.59
2019-01-27T04:36:24.546Z,5.57
2019-01-27T04:37:24.534Z,5.54
2019-01-27T04:38:24.523Z,5.54
2019-01-27T04:39:24.513Z,5.57
2019-01-27T04:40:24.551Z,5.54
2019-01-27T04:41:24.488Z,5.55
2019-01-27T04:42:24.478Z,5.47
2019-01-27T04:43:24.464Z,5.47
2019-01-27T04:44:24.459Z,5.48
2019-01-27T04:45:24.450Z,5.44
2019-01-27T04:46:24.476Z,5.40
2019-01-27T04:47:24.436Z,5.47
2019-01-27T04:48:24.431Z,5.37
2019-01-27T04:49:24.406Z,5.37
2019-01-27T04:50:24.399Z,5.37
2019-01-27T04:51:24.381Z,5.30
2019-01-27T04:52:24.411Z,5.33
2019-01-27T04:53:24.366Z,5.41
2019-01-27T04:54:24.345Z,5.51
2019-01-27T04:55:24.344Z,5.52
2019-01-27T04:56:24.329Z,5.54
2019-01-27T04:57:24.316Z,5.54
2019-01-27T04:58:24.349Z,5.58
2019-01-27T04:59:24.292Z,5.57
2019-01-27T05:00:24.294Z,5.55
2019-01-27T05:01:24.275Z,5.51
2019-01-27T05:02:24.260Z,5.51
2019-01-27T05:03:24.262Z,5.52
2019-01-27T05:04:24.271Z,5.65
2019-01-27T05:05:24.233Z,5.65
2019-01-27T05:06:24.218Z,5.65
2019-01-27T05:07:24.201Z,5.65
2019-01-27T05:08:24.198Z,5.62
2019-01-27T05:09:24.186Z,5.65
2019-01-27T05:10:24.205Z,5.70
2019-01-27T05:11:24.165Z,5.65
2019-01-27T05:12:24.150Z,5.65
2019-01-27T05:13:24.141Z,5.61
2019-01-27T05:14:24.131Z,5.65
2019-01-27T05:15:24.127Z,5.69
2019-01-27T05:16:24.158Z,5.65
2019-01-27T05:17:24.098Z,5.66
2019-01-27T05:18:24.087Z,5.59
2019-01-27T05:19:24.077Z,5.69
2019-01-27T05:20:24.066Z,5.59
2019-01-27T05:21:24.058Z,5.62
2019-01-27T05:22:24.076Z,5.54
2019-01-27T05:23:24.030Z,5.52
2019-01-27T05:24:24.071Z,5.57
2019-01-27T05:25:24.019Z,5.57
2019-01-27T05:26:23.999Z,5.47
2019-01-27T05:27:25.399Z,5.48
2019-01-27T05:28:24.015Z,5.54
2019-01-27T05:29:23.965Z,5.54
2019-01-27T05:30:23.960Z,5.51
2019-01-27T05:31:23.947Z,5.52
2019-01-27T05:32:23.936Z,5.47
2019-01-27T05:33:23.934Z,5.41
2019-01-27T05:34:23.947Z,5.40
2019-01-27T05:35:23.898Z,5.40
2019-01-27T05:36:23.896Z,5.43
2019-01-27T05:37:23.881Z,5.52
2019-01-27T05:38:23.866Z,5.52
2019-01-27T05:39:23.873Z,5.57
2019-01-27T05:40:23.897Z,5.57
2019-01-27T05:41:23.835Z,5.61
2019-01-27T05:42:23.823Z,5.61
2019-01-27T05:43:23.823Z,5.59
2019-01-27T05:44:23.803Z,5.51
2019-01-27T05:45:23.810Z,5.52
2019-01-27T05:46:23.818Z,5.52
2019-01-27T05:47:23.771Z,5.59
2019-01-27T05:48:23.758Z,5.67
2019-01-27T05:49:23.751Z,5.62
2019-01-27T05:50:23.738Z,5.75
2019-01-27T05:51:23.732Z,5.62
2019-01-27T05:52:23.775Z,5.65
2019-01-27T05:53:23.728Z,5.66
2019-01-27T05:54:23.699Z,5.66
2019-01-27T05:55:23.699Z,5.67
2019-01-27T05:56:23.681Z,5.61
2019-01-27T05:57:23.662Z,5.57
2019-01-27T05:58:23.680Z,5.58
2019-01-27T05:59:23.647Z,5.58
2019-01-27T06:00:23.642Z,5.52
2019-01-27T06:01:23.621Z,5.58
2019-01-27T06:02:23.609Z,5.70
2019-01-27T06:03:23.598Z,5.70
2019-01-27T06:04:23.622Z,5.75
2019-01-27T06:05:23.578Z,5.76
2019-01-27T06:06:23.570Z,5.76
2019-01-27T06:07:23.554Z,5.66
2019-01-27T06:08:23.545Z,5.67
2019-01-27T06:09:23.533Z,5.66
2019-01-27T06:10:23.569Z,5.66
2019-01-27T06:11:23.511Z,5.62
2019-01-27T06:12:23.506Z,5.67
2019-01-27T06:13:23.492Z,5.72
2019-01-27T06:14:23.483Z,5.66
2019-01-27T06:15:23.474Z,5.80
2019-01-27T06:16:23.525Z,5.77
2019-01-27T06:17:23.452Z,5.85
2019-01-27T06:18:23.441Z,5.97
2019-01-27T06:19:23.427Z,5.93
2019-01-27T06:20:23.427Z,5.97
2019-01-27T06:21:23.409Z,5.93
2019-01-27T06:22:23.450Z,6.06
2019-01-27T06:23:23.386Z,6.06
2019-01-27T06:24:23.374Z,6.05
2019-01-27T06:25:26.103Z,6.08
2019-01-27T06:26:23.350Z,6.03
2019-01-27T06:27:23.338Z,6.02
2019-01-27T06:28:23.363Z,6.00
2019-01-27T06:29:23.316Z,5.97
2019-01-27T06:30:23.312Z,6.03
2019-01-27T06:31:23.296Z,5.91
2019-01-27T06:32:23.284Z,5.94
2019-01-27T06:33:23.279Z,5.98
2019-01-27T06:34:23.315Z,5.91
2019-01-27T06:35:23.255Z,5.87
2019-01-27T06:36:23.242Z,5.77
2019-01-27T06:37:24.892Z,5.82
2019-01-27T06:38:23.221Z,5.80
2019-01-27T06:39:23.207Z,5.72
2019-01-27T06:40:23.242Z,5.67
2019-01-27T06:41:23.191Z,5.72
2019-01-27T06:42:23.178Z,5.73
2019-01-27T06:43:23.165Z,5.65
2019-01-27T06:44:23.153Z,5.59
2019-01-27T06:45:23.142Z,5.61
2019-01-27T06:46:23.175Z,5.51
2019-01-27T06:47:23.121Z,5.61
2019-01-27T06:48:23.116Z,5.57
2019-01-27T06:49:23.099Z,5.58
2019-01-27T06:50:23.088Z,5.76
2019-01-27T06:51:23.078Z,5.79
2019-01-27T06:52:23.100Z,5.84
2019-01-27T06:53:23.056Z,5.73
2019-01-27T06:54:23.055Z,5.77
2019-01-27T06:55:23.086Z,5.82
2019-01-27T06:56:23.025Z,5.84
2019-01-27T06:57:23.032Z,5.77
2019-01-27T06:58:23.069Z,5.65
2019-01-27T06:59:22.997Z,5.65
2019-01-27T07:00:22.994Z,5.59
2019-01-27T07:01:22.970Z,5.77
2019-01-27T07:02:29.357Z,5.79
2019-01-27T07:03:24.064Z,5.66
2019-01-27T07:04:22.937Z,5.67
2019-01-27T07:05:22.932Z,5.65
2019-01-27T07:06:22.917Z,5.61
2019-01-27T07:07:22.926Z,5.66
2019-01-27T07:08:22.899Z,5.61
2019-01-27T07:09:22.922Z,5.57
2019-01-27T07:10:22.873Z,5.58
2019-01-27T07:11:22.858Z,5.57
2019-01-27T07:12:22.849Z,5.58
2019-01-27T07:13:22.844Z,5.57
2019-01-27T07:14:22.834Z,5.54
2019-01-27T07:15:23.121Z,5.50
2019-01-27T07:16:22.805Z,5.41
2019-01-27T07:17:22.798Z,5.43
2019-01-27T07:18:22.784Z,5.43
2019-01-27T07:19:22.774Z,5.40
2019-01-27T07:20:22.769Z,5.34
2019-01-27T07:21:22.790Z,5.39
2019-01-27T07:22:22.751Z,5.47
2019-01-27T07:23:22.730Z,5.39
2019-01-27T07:24:22.719Z,5.37
2019-01-27T07:25:22.718Z,5.41
2019-01-27T07:26:22.701Z,5.39
2019-01-27T07:27:22.715Z,5.36
2019-01-27T07:28:22.677Z,5.36
2019-01-27T07:29:22.678Z,5.33
2019-01-27T07:30:22.654Z,5.30
2019-01-27T07:31:22.661Z,5.36
2019-01-27T07:32:22.650Z,5.32
2019-01-27T07:33:22.662Z,5.25
2019-01-27T07:34:22.626Z,5.33
2019-01-27T07:35:22.602Z,5.33
2019-01-27T07:36:22.586Z,5.29
2019-01-27T07:37:22.578Z,5.32
2019-01-27T07:38:22.567Z,5.34
2019-01-27T07:39:22.592Z,5.44
2019-01-27T07:40:22.543Z,5.57
2019-01-27T07:41:22.541Z,5.51
2019-01-27T07:42:22.527Z,5.51
2019-01-27T07:43:22.509Z,5.40
2019-01-27T07:44:22.504Z,5.37
2019-01-27T07:45:22.520Z,5.43
2019-01-27T07:46:22.479Z,5.40
2019-01-27T07:47:22.475Z,5.41
2019-01-27T07:48:22.467Z,5.39
2019-01-27T07:49:22.447Z,5.40
2019-01-27T07:50:22.438Z,5.51
2019-01-27T07:51:22.461Z,5.58
2019-01-27T07:52:22.415Z,5.54
2019-01-27T07:53:22.405Z,5.58
2019-01-27T07:54:22.391Z,5.58
2019-01-27T07:55:22.379Z,5.57
2019-01-27T07:56:22.431Z,5.59
2019-01-27T07:57:22.419Z,5.55
2019-01-27T07:58:22.359Z,5.54
2019-01-27T07:59:22.341Z,5.55
2019-01-27T08:00:22.333Z,5.52
2019-01-27T08:01:22.319Z,5.57
2019-01-27T08:02:22.306Z,5.52
2019-01-27T08:03:22.341Z,5.52
2019-01-27T08:04:22.283Z,5.59
2019-01-27T08:05:22.276Z,5.62
2019-01-27T08:06:22.260Z,5.61
2019-01-27T08:07:22.251Z,5.66
2019-01-27T08:08:22.244Z,5.73
2019-01-27T08:09:22.279Z,5.76
2019-01-27T08:10:22.219Z,5.88
2019-01-27T08:11:22.211Z,5.94
2019-01-27T08:12:22.194Z,5.95
2019-01-27T08:13:22.184Z,6.03
2019-01-27T08:14:22.172Z,6.05
2019-01-27T08:15:22.193Z,6.16
2019-01-27T08:16:22.161Z,6.18
2019-01-27T08:17:22.142Z,6.18
2019-01-27T08:18:22.131Z,6.12
2019-01-27T08:19:22.119Z,6.24
2019-01-27T08:20:22.108Z,6.21
2019-01-27T08:21:22.135Z,6.32
2019-01-27T08:22:22.103Z,6.47
2019-01-27T08:23:22.079Z,6.37
2019-01-27T08:24:22.070Z,6.38
2019-01-27T08:25:22.063Z,6.46
2019-01-27T08:26:22.046Z,6.40
2019-01-27T08:27:22.075Z,6.35
2019-01-27T08:28:22.022Z,6.50
2019-01-27T08:29:22.016Z,6.53
2019-01-27T08:30:22.003Z,6.49
2019-01-27T08:31:21.994Z,6.55
2019-01-27T08:32:22.000Z,6.49
2019-01-27T08:33:21.999Z,6.57
2019-01-27T08:34:21.971Z,6.56
2019-01-27T08:35:21.956Z,6.60
2019-01-27T08:36:21.936Z,6.60
2019-01-27T08:37:21.928Z,6.57
2019-01-27T08:38:21.914Z,6.65
2019-01-27T08:39:21.950Z,6.63
2019-01-27T08:40:21.899Z,6.67
2019-01-27T08:41:21.883Z,6.64
2019-01-27T08:42:21.871Z,6.61
2019-01-27T08:43:21.861Z,6.65
2019-01-27T08:44:21.851Z,6.57
2019-01-27T08:45:21.900Z,6.63
2019-01-27T08:46:21.829Z,6.68
2019-01-27T08:47:21.816Z,6.71
2019-01-27T08:48:21.806Z,6.74
2019-01-27T08:49:21.794Z,6.74
2019-01-27T08:50:21.786Z,6.61
2019-01-27T08:51:21.819Z,6.63
2019-01-27T08:52:21.764Z,6.81
2019-01-27T08:53:21.751Z,6.71
2019-01-27T08:54:21.741Z,6.71
2019-01-27T08:55:21.733Z,6.75
2019-01-27T08:56:21.718Z,6.85
2019-01-27T08:57:21.755Z,6.82
2019-01-27T08:58:21.696Z,6.83
2019-01-27T08:59:21.686Z,6.81
2019-01-27T09:00:21.681Z,6.89
2019-01-27T09:01:21.666Z,6.85
2019-01-27T09:02:21.657Z,6.86
2019-01-27T09:03:21.679Z,6.99
2019-01-27T09:04:21.631Z,7.00
2019-01-27T09:05:21.621Z,6.97
2019-01-27T09:06:21.619Z,6.97
2019-01-27T09:07:21.599Z,6.93
2019-01-27T09:08:21.592Z,6.97
2019-01-27T09:09:21.628Z,7.00
2019-01-27T09:10:21.572Z,7.01
2019-01-27T09:11:21.559Z,6.99
2019-01-27T09:12:21.579Z,7.01
2019-01-27T09:13:21.536Z,7.01
2019-01-27T09:14:21.525Z,7.03
2019-01-27T09:15:21.576Z,6.99
2019-01-27T09:16:21.500Z,7.08
2019-01-27T09:17:21.644Z,6.97
2019-01-27T09:18:21.479Z,7.03
2019-01-27T09:19:21.471Z,6.99
2019-01-27T09:20:21.462Z,7.04
2019-01-27T09:21:21.490Z,7.10
2019-01-27T09:22:21.469Z,7.19
2019-01-27T09:23:21.424Z,7.15
2019-01-27T09:24:21.417Z,7.10
2019-01-27T09:25:21.403Z,7.26
2019-01-27T09:26:21.425Z,7.25
2019-01-27T09:27:21.421Z,7.22
2019-01-27T09:28:21.367Z,7.22
2019-01-27T09:29:21.360Z,7.26
2019-01-27T09:30:21.387Z,7.26
2019-01-27T09:31:21.343Z,7.25
2019-01-27T09:32:21.325Z,7.26
2019-01-27T09:33:21.361Z,7.16
2019-01-27T09:34:21.304Z,7.24
2019-01-27T09:35:21.293Z,7.18
2019-01-27T09:36:21.285Z,7.15
2019-01-27T09:37:21.380Z,7.26
2019-01-27T09:38:21.263Z,7.29
2019-01-27T09:39:21.306Z,7.22
2019-01-27T09:40:21.252Z,7.33
2019-01-27T09:41:21.250Z,7.26
2019-01-27T09:42:21.216Z,7.21
2019-01-27T09:43:21.207Z,7.24
2019-01-27T09:44:21.195Z,7.28
2019-01-27T09:45:21.224Z,7.26
2019-01-27T09:46:21.177Z,7.25
2019-01-27T09:47:21.171Z,7.22
2019-01-27T09:48:21.154Z,7.24
2019-01-27T09:49:21.170Z,7.26
2019-01-27T09:50:21.132Z,7.26
2019-01-27T09:51:21.156Z,7.19
2019-01-27T09:52:21.135Z,7.28
2019-01-27T09:53:21.096Z,7.28
2019-01-27T09:54:21.086Z,7.18
2019-01-27T09:55:21.083Z,7.21
2019-01-27T09:56:21.066Z,7.21
2019-01-27T09:57:21.105Z,7.29
2019-01-27T09:58:21.042Z,7.21
2019-01-27T09:59:21.033Z,7.31
2019-01-27T10:00:21.024Z,7.22
2019-01-27T10:01:21.008Z,7.24
2019-01-27T10:02:20.999Z,7.19
2019-01-27T10:03:21.023Z,7.22
2019-01-27T10:04:20.976Z,7.31
2019-01-27T10:05:20.969Z,7.22
2019-01-27T10:06:20.955Z,7.26
2019-01-27T10:07:20.945Z,7.21
2019-01-27T10:08:20.942Z,7.29
2019-01-27T10:09:20.961Z,7.26
2019-01-27T10:10:20.910Z,7.22
2019-01-27T10:11:26.682Z,7.28
2019-01-27T10:12:21.888Z,7.25
2019-01-27T10:13:20.932Z,7.21
2019-01-27T10:14:21.487Z,7.28
2019-01-27T10:15:20.931Z,7.24
2019-01-27T10:16:20.849Z,7.28
2019-01-27T10:17:20.861Z,7.28
2019-01-27T10:18:20.822Z,7.19
2019-01-27T10:19:20.811Z,7.22
2019-01-27T10:20:20.808Z,7.24
2019-01-27T10:21:20.834Z,7.21
2019-01-27T10:22:20.779Z,7.31
2019-01-27T10:23:20.775Z,7.21
2019-01-27T10:24:20.760Z,7.26
2019-01-27T10:25:20.757Z,7.22
2019-01-27T10:26:20.736Z,7.25
2019-01-27T10:27:20.763Z,7.28
2019-01-27T10:28:20.717Z,7.22
2019-01-27T10:29:20.780Z,7.34
2019-01-27T10:30:20.694Z,7.25
2019-01-27T10:31:20.683Z,7.31
2019-01-27T10:32:20.688Z,7.29
2019-01-27T10:33:20.700Z,7.34
2019-01-27T10:34:20.656Z,7.34
2019-01-27T10:35:20.645Z,7.37
2019-01-27T10:36:20.637Z,7.36
2019-01-27T10:37:20.614Z,7.43
2019-01-27T10:38:20.619Z,7.43
2019-01-27T10:39:20.690Z,7.52
2019-01-27T10:40:20.588Z,7.47
2019-01-27T10:41:20.573Z,7.47
2019-01-27T10:42:20.575Z,7.43
2019-01-27T10:43:20.556Z,7.42
2019-01-27T10:44:20.574Z,7.46
2019-01-27T10:45:20.581Z,7.54
2019-01-27T10:46:20.520Z,7.44
2019-01-27T10:47:20.513Z,7.43
2019-01-27T10:48:20.501Z,7.40
2019-01-27T10:49:20.483Z,7.36
2019-01-27T10:50:20.484Z,7.37
2019-01-27T10:51:20.533Z,7.36
2019-01-27T10:52:20.470Z,7.31
2019-01-27T10:53:21.007Z,7.33
2019-01-27T10:54:20.448Z,7.37
2019-01-27T10:55:20.426Z,7.44
2019-01-27T10:56:20.408Z,7.40
2019-01-27T10:57:20.435Z,7.31
2019-01-27T10:58:20.390Z,7.26
2019-01-27T10:59:20.378Z,7.26
2019-01-27T11:00:20.366Z,7.24
2019-01-27T11:01:20.353Z,7.28
2019-01-27T11:02:20.457Z,7.29
2019-01-27T11:03:20.370Z,7.22
2019-01-27T11:04:20.318Z,7.26
2019-01-27T11:05:20.310Z,7.22
2019-01-27T11:06:20.301Z,7.25
2019-01-27T11:07:20.388Z,7.21
2019-01-27T11:08:20.309Z,7.28
2019-01-27T11:09:20.370Z,7.25
2019-01-27T11:10:20.252Z,7.24
2019-01-27T11:11:20.243Z,7.28
2019-01-27T11:12:20.241Z,7.28
2019-01-27T11:13:20.221Z,7.18
2019-01-27T11:14:20.208Z,7.28
2019-01-27T11:15:20.233Z,7.34
2019-01-27T11:16:20.193Z,7.21
2019-01-27T11:17:20.182Z,7.26
2019-01-27T11:18:20.173Z,7.26
2019-01-27T11:19:20.161Z,7.28
2019-01-27T11:20:20.149Z,7.28
2019-01-27T11:21:20.170Z,7.22
2019-01-27T11:22:20.124Z,7.28
2019-01-27T11:23:20.113Z,7.34
2019-01-27T11:24:20.102Z,7.36
2019-01-27T11:25:20.095Z,7.43
2019-01-27T11:26:20.084Z,7.46
2019-01-27T11:27:20.105Z,7.61
2019-01-27T11:28:20.055Z,7.77
2019-01-27T11:29:20.044Z,7.81
2019-01-27T11:30:20.046Z,7.86
2019-01-27T11:31:20.045Z,7.87
2019-01-27T11:32:20.012Z,7.96
2019-01-27T11:33:20.144Z,8.06
2019-01-27T11:34:20.029Z,8.12
2019-01-27T11:35:22.074Z,8.09
2019-01-27T11:36:19.982Z,8.35
2019-01-27T11:37:19.963Z,8.46
2019-01-27T11:38:19.951Z,8.39
2019-01-27T11:39:19.975Z,8.49
2019-01-27T11:40:19.940Z,8.44
2019-01-27T11:41:19.934Z,8.34
2019-01-27T11:42:19.903Z,8.46
2019-01-27T11:43:19.895Z,8.47
2019-01-27T11:44:19.891Z,8.37
2019-01-27T11:45:19.906Z,8.57
2019-01-27T11:46:19.879Z,8.50
2019-01-27T11:47:19.857Z,8.42
2019-01-27T11:48:19.844Z,8.38
2019-01-27T11:49:19.833Z,8.31
2019-01-27T11:50:19.820Z,8.32
2019-01-27T11:51:19.886Z,8.50
2019-01-27T11:52:19.799Z,8.42
2019-01-27T11:53:19.835Z,8.44
2019-01-27T11:54:19.777Z,8.47
2019-01-27T11:55:19.772Z,8.52
2019-01-27T11:56:19.751Z,8.52
2019-01-27T11:57:19.778Z,8.50
2019-01-27T11:58:19.732Z,8.50
2019-01-27T11:59:19.720Z,8.60
2019-01-27T12:00:19.719Z,8.59
2019-01-27T12:01:19.723Z,8.56
2019-01-27T12:02:19.696Z,8.55
2019-01-27T12:03:19.727Z,8.63
2019-01-27T12:04:19.668Z,8.56
2019-01-27T12:05:19.656Z,8.55
2019-01-27T12:06:19.643Z,8.71
2019-01-27T12:07:19.638Z,8.77
2019-01-27T12:08:19.625Z,8.88
2019-01-27T12:09:19.643Z,8.93
2019-01-27T12:10:19.606Z,9.11
2019-01-27T12:11:19.593Z,9.12
2019-01-27T12:12:19.587Z,9.15
2019-01-27T12:13:19.574Z,9.29
2019-01-27T12:14:19.555Z,9.41
2019-01-27T12:15:19.732Z,9.44
2019-01-27T12:16:19.544Z,9.45
2019-01-27T12:17:19.523Z,9.42
2019-01-27T12:18:19.559Z,9.34
2019-01-27T12:19:19.506Z,9.26
2019-01-27T12:20:19.493Z,9.18
2019-01-27T12:21:19.538Z,9.19
2019-01-27T12:22:19.469Z,9.09
2019-01-27T12:23:19.459Z,9.22
2019-01-27T12:24:19.464Z,9.41
2019-01-27T12:25:19.438Z,9.48
2019-01-27T12:26:19.430Z,9.44
2019-01-27T12:27:19.451Z,9.59
2019-01-27T12:28:19.409Z,9.55
2019-01-27T12:29:19.403Z,9.50
2019-01-27T12:30:19.386Z,9.67
2019-01-27T12:31:19.374Z,9.55
2019-01-27T12:32:19.364Z,9.54
2019-01-27T12:33:19.497Z,9.37
2019-01-27T12:34:19.347Z,9.54
2019-01-27T12:35:19.330Z,9.44
2019-01-27T12:36:19.326Z,9.36
2019-01-27T12:37:19.336Z,9.27
2019-01-27T12:38:19.296Z,9.29
2019-01-27T12:39:19.329Z,9.42
2019-01-27T12:40:19.293Z,9.59
2019-01-27T12:41:19.269Z,9.60
2019-01-27T12:42:19.272Z,9.66
2019-01-27T12:43:19.253Z,9.60
2019-01-27T12:44:19.236Z,9.59
2019-01-27T12:45:19.257Z,9.67
2019-01-27T12:46:19.215Z,9.81
2019-01-27T12:47:19.215Z,9.73
2019-01-27T12:48:19.197Z,9.67
2019-01-27T12:49:19.178Z,9.67
2019-01-27T12:50:19.181Z,9.67
2019-01-27T12:51:19.195Z,9.66
2019-01-27T12:52:19.164Z,9.62
2019-01-27T12:53:19.155Z,9.66
2019-01-27T12:54:19.130Z,9.66
2019-01-27T12:55:19.122Z,9.77
2019-01-27T12:56:19.109Z,9.67
2019-01-27T12:57:19.126Z,9.87
2019-01-27T12:58:19.092Z,9.98
2019-01-27T12:59:19.084Z,10.08
2019-01-27T13:00:19.063Z,10.31
2019-01-27T13:01:19.047Z,10.38
2019-01-27T13:02:19.039Z,10.39
2019-01-27T13:03:19.287Z,10.45
2019-01-27T13:04:19.038Z,10.46
2019-01-27T13:05:19.006Z,10.54
2019-01-27T13:06:18.993Z,10.55
2019-01-27T13:07:18.979Z,10.68
2019-01-27T13:08:18.970Z,10.60
2019-01-27T13:09:18.999Z,10.54
2019-01-27T13:10:18.952Z,10.45
2019-01-27T13:11:18.940Z,10.35
2019-01-27T13:12:18.931Z,10.41
2019-01-27T13:13:18.927Z,10.39
2019-01-27T13:14:18.904Z,10.24
2019-01-27T13:15:18.948Z,10.26
2019-01-27T13:16:18.931Z,10.21
2019-01-27T13:17:18.883Z,10.14